sensor_id;sensor_type;location;lat;lon;timestamp;temperature;humidity
81524;DHT22;70954;49.500;10.416;2024-03-08T00:00:57;3.90;56.10
81524;DHT22;70954;49.500;10.416;2024-03-08T00:03:23;3.90;56.10
81524;DHT22;70954;49.500;10.416;2024-03-08T00:05:48;3.90;56.10
81524;DHT22;70954;49.500;10.416;2024-03-08T00:08:14;3.80;56.20
81524;DHT22;70954;49.500;10.416;2024-03-08T00:10:39;3.80;56.20
81524;DHT22;70954;49.500;10.416;2024-03-08T00:13:04;3.80;56.20
81524;DHT22;70954;49.500;10.416;2024-03-08T00:15:30;3.80;56.20
81524;DHT22;70954;49.500;10.416;2024-03-08T00:17:55;3.70;56.40
81524;DHT22;70954;49.500;10.416;2024-03-08T00:20:21;3.70;56.40
81524;DHT22;70954;49.500;10.416;2024-03-08T00:22:46;3.70;56.50
81524;DHT22;70954;49.500;10.416;2024-03-08T00:25:12;3.70;56.50
81524;DHT22;70954;49.500;10.416;2024-03-08T00:27:38;3.70;56.50
81524;DHT22;70954;49.500;10.416;2024-03-08T00:30:03;3.60;56.60
81524;DHT22;70954;49.500;10.416;2024-03-08T00:32:29;3.60;56.60
81524;DHT22;70954;49.500;10.416;2024-03-08T00:34:54;3.60;56.60
81524;DHT22;70954;49.500;10.416;2024-03-08T00:37:21;3.60;56.60
81524;DHT22;70954;49.500;10.416;2024-03-08T00:39:46;3.60;56.70
81524;DHT22;70954;49.500;10.416;2024-03-08T00:42:12;3.60;56.70
81524;DHT22;70954;49.500;10.416;2024-03-08T00:44:37;3.50;56.70
81524;DHT22;70954;49.500;10.416;2024-03-08T00:47:02;3.50;56.70
81524;DHT22;70954;49.500;10.416;2024-03-08T00:49:28;3.50;56.80
81524;DHT22;70954;49.500;10.416;2024-03-08T00:51:53;3.50;56.80
81524;DHT22;70954;49.500;10.416;2024-03-08T00:54:19;3.50;56.90
81524;DHT22;70954;49.500;10.416;2024-03-08T00:56:44;3.50;57.00
81524;DHT22;70954;49.500;10.416;2024-03-08T00:59:10;3.40;57.00
81524;DHT22;70954;49.500;10.416;2024-03-08T01:01:35;3.40;57.10
81524;DHT22;70954;49.500;10.416;2024-03-08T01:04:00;3.30;57.10
81524;DHT22;70954;49.500;10.416;2024-03-08T01:06:26;3.30;57.10
81524;DHT22;70954;49.500;10.416;2024-03-08T01:08:51;3.30;57.10
81524;DHT22;70954;49.500;10.416;2024-03-08T01:11:17;3.30;57.10
81524;DHT22;70954;49.500;10.416;2024-03-08T01:13:42;3.30;57.20
81524;DHT22;70954;49.500;10.416;2024-03-08T01:16:08;3.30;57.20
81524;DHT22;70954;49.500;10.416;2024-03-08T01:18:33;3.20;57.30
81524;DHT22;70954;49.500;10.416;2024-03-08T01:20:59;3.20;57.30
81524;DHT22;70954;49.500;10.416;2024-03-08T01:23:24;3.10;57.40
81524;DHT22;70954;49.500;10.416;2024-03-08T01:25:49;3.10;57.40
81524;DHT22;70954;49.500;10.416;2024-03-08T01:28:15;3.10;57.60
81524;DHT22;70954;49.500;10.416;2024-03-08T01:30:40;3.10;57.60
81524;DHT22;70954;49.500;10.416;2024-03-08T01:33:06;3.10;57.60
81524;DHT22;70954;49.500;10.416;2024-03-08T01:35:31;3.10;57.70
81524;DHT22;70954;49.500;10.416;2024-03-08T01:37:57;3.00;57.70
81524;DHT22;70954;49.500;10.416;2024-03-08T01:40:22;3.00;57.80
81524;DHT22;70954;49.500;10.416;2024-03-08T01:42:48;3.00;57.90
81524;DHT22;70954;49.500;10.416;2024-03-08T01:45:13;2.90;58.00
81524;DHT22;70954;49.500;10.416;2024-03-08T01:47:39;2.90;58.00
81524;DHT22;70954;49.500;10.416;2024-03-08T01:50:04;2.90;58.10
81524;DHT22;70954;49.500;10.416;2024-03-08T01:52:30;2.90;58.10
81524;DHT22;70954;49.500;10.416;2024-03-08T01:54:56;2.90;58.20
81524;DHT22;70954;49.500;10.416;2024-03-08T01:57:22;2.90;58.20
81524;DHT22;70954;49.500;10.416;2024-03-08T01:59:47;2.80;58.30
81524;DHT22;70954;49.500;10.416;2024-03-08T02:02:14;2.80;58.30
81524;DHT22;70954;49.500;10.416;2024-03-08T02:04:42;2.80;58.40
81524;DHT22;70954;49.500;10.416;2024-03-08T02:07:07;2.80;58.40
81524;DHT22;70954;49.500;10.416;2024-03-08T02:09:33;2.70;58.50
81524;DHT22;70954;49.500;10.416;2024-03-08T02:11:58;2.70;58.50
81524;DHT22;70954;49.500;10.416;2024-03-08T02:14:24;2.70;58.50
81524;DHT22;70954;49.500;10.416;2024-03-08T02:16:49;2.70;58.60
81524;DHT22;70954;49.500;10.416;2024-03-08T02:19:14;2.60;58.70
81524;DHT22;70954;49.500;10.416;2024-03-08T02:21:40;2.60;58.70
81524;DHT22;70954;49.500;10.416;2024-03-08T02:24:06;2.60;58.80
81524;DHT22;70954;49.500;10.416;2024-03-08T02:26:31;2.50;58.80
81524;DHT22;70954;49.500;10.416;2024-03-08T02:28:57;2.50;58.80
81524;DHT22;70954;49.500;10.416;2024-03-08T02:31:22;2.50;59.00
81524;DHT22;70954;49.500;10.416;2024-03-08T02:33:47;2.50;59.00
81524;DHT22;70954;49.500;10.416;2024-03-08T02:36:13;2.50;59.10
81524;DHT22;70954;49.500;10.416;2024-03-08T02:38:39;2.50;59.00
81524;DHT22;70954;49.500;10.416;2024-03-08T02:41:04;2.50;59.00
81524;DHT22;70954;49.500;10.416;2024-03-08T02:43:29;2.40;59.20
81524;DHT22;70954;49.500;10.416;2024-03-08T02:45:55;2.40;59.20
81524;DHT22;70954;49.500;10.416;2024-03-08T02:48:20;2.40;59.30
81524;DHT22;70954;49.500;10.416;2024-03-08T02:50:46;2.40;59.20
81524;DHT22;70954;49.500;10.416;2024-03-08T02:53:12;2.40;59.30
81524;DHT22;70954;49.500;10.416;2024-03-08T02:55:38;2.30;59.30
81524;DHT22;70954;49.500;10.416;2024-03-08T02:58:04;2.30;59.40
81524;DHT22;70954;49.500;10.416;2024-03-08T03:00:30;2.30;59.50
81524;DHT22;70954;49.500;10.416;2024-03-08T03:02:55;2.30;59.60
81524;DHT22;70954;49.500;10.416;2024-03-08T03:05:21;2.30;59.60
81524;DHT22;70954;49.500;10.416;2024-03-08T03:07:46;2.30;59.60
81524;DHT22;70954;49.500;10.416;2024-03-08T03:10:12;2.20;59.60
81524;DHT22;70954;49.500;10.416;2024-03-08T03:12:37;2.20;59.70
81524;DHT22;70954;49.500;10.416;2024-03-08T03:15:03;2.20;59.80
81524;DHT22;70954;49.500;10.416;2024-03-08T03:17:29;2.20;59.90
81524;DHT22;70954;49.500;10.416;2024-03-08T03:19:54;2.20;59.90
81524;DHT22;70954;49.500;10.416;2024-03-08T03:22:20;2.20;60.00
81524;DHT22;70954;49.500;10.416;2024-03-08T03:24:45;2.20;60.00
81524;DHT22;70954;49.500;10.416;2024-03-08T03:27:11;2.10;60.00
81524;DHT22;70954;49.500;10.416;2024-03-08T03:29:38;2.10;60.10
81524;DHT22;70954;49.500;10.416;2024-03-08T03:32:04;2.10;60.20
81524;DHT22;70954;49.500;10.416;2024-03-08T03:34:30;2.10;60.20
81524;DHT22;70954;49.500;10.416;2024-03-08T03:36:55;2.10;60.20
81524;DHT22;70954;49.500;10.416;2024-03-08T03:39:21;2.10;60.30
81524;DHT22;70954;49.500;10.416;2024-03-08T03:41:47;2.10;60.30
81524;DHT22;70954;49.500;10.416;2024-03-08T03:44:12;2.10;60.40
81524;DHT22;70954;49.500;10.416;2024-03-08T03:46:41;2.10;60.40
81524;DHT22;70954;49.500;10.416;2024-03-08T03:49:07;2.10;60.50
81524;DHT22;70954;49.500;10.416;2024-03-08T03:51:32;2.10;60.50
81524;DHT22;70954;49.500;10.416;2024-03-08T03:53:58;2.10;60.50
81524;DHT22;70954;49.500;10.416;2024-03-08T03:56:26;2.10;60.50
81524;DHT22;70954;49.500;10.416;2024-03-08T03:58:52;2.10;60.50
81524;DHT22;70954;49.500;10.416;2024-03-08T04:01:17;2.10;60.60
81524;DHT22;70954;49.500;10.416;2024-03-08T04:03:42;2.10;60.70
81524;DHT22;70954;49.500;10.416;2024-03-08T04:06:08;2.10;60.60
81524;DHT22;70954;49.500;10.416;2024-03-08T04:08:33;2.10;60.70
81524;DHT22;70954;49.500;10.416;2024-03-08T04:11:00;2.10;60.80
81524;DHT22;70954;49.500;10.416;2024-03-08T04:13:25;2.10;60.80
81524;DHT22;70954;49.500;10.416;2024-03-08T04:15:50;2.10;60.80
81524;DHT22;70954;49.500;10.416;2024-03-08T04:18:16;2.00;60.80
81524;DHT22;70954;49.500;10.416;2024-03-08T04:20:41;2.10;60.90
81524;DHT22;70954;49.500;10.416;2024-03-08T04:23:07;2.00;60.90
81524;DHT22;70954;49.500;10.416;2024-03-08T04:25:32;2.00;61.00
81524;DHT22;70954;49.500;10.416;2024-03-08T04:27:58;2.00;61.00
81524;DHT22;70954;49.500;10.416;2024-03-08T04:30:23;2.00;61.00
81524;DHT22;70954;49.500;10.416;2024-03-08T04:32:48;2.00;61.00
81524;DHT22;70954;49.500;10.416;2024-03-08T04:35:14;2.00;61.10
81524;DHT22;70954;49.500;10.416;2024-03-08T04:37:39;2.00;61.10
81524;DHT22;70954;49.500;10.416;2024-03-08T04:40:05;2.00;61.20
81524;DHT22;70954;49.500;10.416;2024-03-08T04:42:31;2.10;61.20
81524;DHT22;70954;49.500;10.416;2024-03-08T04:44:57;2.00;61.30
81524;DHT22;70954;49.500;10.416;2024-03-08T04:47:23;2.00;61.30
81524;DHT22;70954;49.500;10.416;2024-03-08T04:49:48;2.00;61.20
81524;DHT22;70954;49.500;10.416;2024-03-08T04:52:14;2.00;61.20
81524;DHT22;70954;49.500;10.416;2024-03-08T04:54:39;2.00;61.30
81524;DHT22;70954;49.500;10.416;2024-03-08T04:57:05;2.00;61.30
81524;DHT22;70954;49.500;10.416;2024-03-08T04:59:30;2.00;61.30
81524;DHT22;70954;49.500;10.416;2024-03-08T05:01:56;2.00;61.30
81524;DHT22;70954;49.500;10.416;2024-03-08T05:04:21;2.00;61.30
81524;DHT22;70954;49.500;10.416;2024-03-08T05:06:47;2.00;61.30
81524;DHT22;70954;49.500;10.416;2024-03-08T05:09:12;2.00;61.30
81524;DHT22;70954;49.500;10.416;2024-03-08T05:11:38;2.00;61.40
81524;DHT22;70954;49.500;10.416;2024-03-08T05:14:03;2.00;61.40
81524;DHT22;70954;49.500;10.416;2024-03-08T05:16:28;2.00;61.40
81524;DHT22;70954;49.500;10.416;2024-03-08T05:18:54;2.00;61.40
81524;DHT22;70954;49.500;10.416;2024-03-08T05:21:19;2.00;61.50
81524;DHT22;70954;49.500;10.416;2024-03-08T05:23:45;2.00;61.50
81524;DHT22;70954;49.500;10.416;2024-03-08T05:26:10;2.00;61.60
81524;DHT22;70954;49.500;10.416;2024-03-08T05:28:36;1.90;61.60
81524;DHT22;70954;49.500;10.416;2024-03-08T05:31:01;1.90;61.70
81524;DHT22;70954;49.500;10.416;2024-03-08T05:33:26;2.00;61.70
81524;DHT22;70954;49.500;10.416;2024-03-08T05:35:52;1.90;61.70
81524;DHT22;70954;49.500;10.416;2024-03-08T05:38:17;2.00;61.70
81524;DHT22;70954;49.500;10.416;2024-03-08T05:40:43;1.90;61.80
81524;DHT22;70954;49.500;10.416;2024-03-08T05:43:08;2.00;61.70
81524;DHT22;70954;49.500;10.416;2024-03-08T05:45:34;1.90;61.90
81524;DHT22;70954;49.500;10.416;2024-03-08T05:47:59;1.90;61.90
81524;DHT22;70954;49.500;10.416;2024-03-08T05:50:25;1.90;61.90
81524;DHT22;70954;49.500;10.416;2024-03-08T05:52:50;1.90;62.00
81524;DHT22;70954;49.500;10.416;2024-03-08T05:55:15;1.90;62.00
81524;DHT22;70954;49.500;10.416;2024-03-08T05:57:41;2.00;62.10
81524;DHT22;70954;49.500;10.416;2024-03-08T06:00:07;1.90;62.30
81524;DHT22;70954;49.500;10.416;2024-03-08T06:02:33;2.00;62.20
81524;DHT22;70954;49.500;10.416;2024-03-08T06:04:59;1.90;62.20
81524;DHT22;70954;49.500;10.416;2024-03-08T06:07:24;1.90;62.20
81524;DHT22;70954;49.500;10.416;2024-03-08T06:09:49;2.00;62.30
81524;DHT22;70954;49.500;10.416;2024-03-08T06:12:15;2.00;62.30
81524;DHT22;70954;49.500;10.416;2024-03-08T06:14:40;2.00;62.40
81524;DHT22;70954;49.500;10.416;2024-03-08T06:17:06;2.00;62.40
81524;DHT22;70954;49.500;10.416;2024-03-08T06:19:31;2.00;62.30
81524;DHT22;70954;49.500;10.416;2024-03-08T06:21:57;2.00;62.40
81524;DHT22;70954;49.500;10.416;2024-03-08T06:24:22;2.00;62.50
81524;DHT22;70954;49.500;10.416;2024-03-08T06:26:47;2.00;62.50
81524;DHT22;70954;49.500;10.416;2024-03-08T06:29:13;2.10;62.60
81524;DHT22;70954;49.500;10.416;2024-03-08T06:31:38;2.10;62.50
81524;DHT22;70954;49.500;10.416;2024-03-08T06:34:04;2.10;62.70
81524;DHT22;70954;49.500;10.416;2024-03-08T06:36:30;2.10;62.70
81524;DHT22;70954;49.500;10.416;2024-03-08T06:38:55;2.20;62.80
81524;DHT22;70954;49.500;10.416;2024-03-08T06:41:21;2.20;62.80
81524;DHT22;70954;49.500;10.416;2024-03-08T06:43:47;2.20;62.90
81524;DHT22;70954;49.500;10.416;2024-03-08T06:46:14;2.30;62.80
81524;DHT22;70954;49.500;10.416;2024-03-08T06:48:40;2.30;62.80
81524;DHT22;70954;49.500;10.416;2024-03-08T06:51:05;2.30;62.90
81524;DHT22;70954;49.500;10.416;2024-03-08T06:53:31;2.40;63.00
81524;DHT22;70954;49.500;10.416;2024-03-08T06:55:57;2.40;63.00
81524;DHT22;70954;49.500;10.416;2024-03-08T06:58:23;2.50;63.00
81524;DHT22;70954;49.500;10.416;2024-03-08T07:00:48;2.50;63.00
81524;DHT22;70954;49.500;10.416;2024-03-08T07:03:14;2.50;63.00
81524;DHT22;70954;49.500;10.416;2024-03-08T07:05:39;2.60;63.10
81524;DHT22;70954;49.500;10.416;2024-03-08T07:08:05;2.70;63.10
81524;DHT22;70954;49.500;10.416;2024-03-08T07:10:30;2.70;63.20
81524;DHT22;70954;49.500;10.416;2024-03-08T07:12:56;2.80;63.20
81524;DHT22;70954;49.500;10.416;2024-03-08T07:15:21;2.80;63.20
81524;DHT22;70954;49.500;10.416;2024-03-08T07:17:47;2.90;63.20
81524;DHT22;70954;49.500;10.416;2024-03-08T07:20:13;3.00;63.20
81524;DHT22;70954;49.500;10.416;2024-03-08T07:22:39;3.00;63.10
81524;DHT22;70954;49.500;10.416;2024-03-08T07:25:05;3.10;63.20
81524;DHT22;70954;49.500;10.416;2024-03-08T07:27:31;3.10;63.20
81524;DHT22;70954;49.500;10.416;2024-03-08T07:29:56;3.10;63.20
81524;DHT22;70954;49.500;10.416;2024-03-08T07:32:22;3.20;63.10
81524;DHT22;70954;49.500;10.416;2024-03-08T07:34:48;3.30;63.20
81524;DHT22;70954;49.500;10.416;2024-03-08T07:37:14;3.30;63.20
81524;DHT22;70954;49.500;10.416;2024-03-08T07:39:39;3.40;63.30
81524;DHT22;70954;49.500;10.416;2024-03-08T07:42:05;3.50;63.20
81524;DHT22;70954;49.500;10.416;2024-03-08T07:44:30;3.50;63.10
81524;DHT22;70954;49.500;10.416;2024-03-08T07:46:56;3.60;63.20
81524;DHT22;70954;49.500;10.416;2024-03-08T07:49:21;3.60;63.10
81524;DHT22;70954;49.500;10.416;2024-03-08T07:51:47;3.70;63.10
81524;DHT22;70954;49.500;10.416;2024-03-08T07:54:12;3.80;63.10
81524;DHT22;70954;49.500;10.416;2024-03-08T07:56:38;3.90;63.20
81524;DHT22;70954;49.500;10.416;2024-03-08T07:59:03;3.90;63.10
81524;DHT22;70954;49.500;10.416;2024-03-08T08:01:28;4.00;63.00
81524;DHT22;70954;49.500;10.416;2024-03-08T08:03:54;4.00;63.00
81524;DHT22;70954;49.500;10.416;2024-03-08T08:06:19;4.10;63.00
81524;DHT22;70954;49.500;10.416;2024-03-08T08:08:45;4.20;62.90
81524;DHT22;70954;49.500;10.416;2024-03-08T08:11:11;4.30;63.00
81524;DHT22;70954;49.500;10.416;2024-03-08T08:13:36;4.40;62.90
81524;DHT22;70954;49.500;10.416;2024-03-08T08:16:05;4.50;62.80
81524;DHT22;70954;49.500;10.416;2024-03-08T08:18:30;4.50;62.70
81524;DHT22;70954;49.500;10.416;2024-03-08T08:20:56;4.60;62.70
81524;DHT22;70954;49.500;10.416;2024-03-08T08:23:21;4.70;62.60
81524;DHT22;70954;49.500;10.416;2024-03-08T08:25:47;4.80;62.50
81524;DHT22;70954;49.500;10.416;2024-03-08T08:28:12;4.90;62.40
81524;DHT22;70954;49.500;10.416;2024-03-08T08:30:38;5.00;62.30
81524;DHT22;70954;49.500;10.416;2024-03-08T08:33:04;5.00;62.30
81524;DHT22;70954;49.500;10.416;2024-03-08T08:35:29;5.10;62.30
81524;DHT22;70954;49.500;10.416;2024-03-08T08:37:55;5.20;62.10
81524;DHT22;70954;49.500;10.416;2024-03-08T08:40:20;5.30;61.90
81524;DHT22;70954;49.500;10.416;2024-03-08T08:42:46;5.30;61.80
81524;DHT22;70954;49.500;10.416;2024-03-08T08:45:11;5.50;61.60
81524;DHT22;70954;49.500;10.416;2024-03-08T08:47:37;5.50;61.50
81524;DHT22;70954;49.500;10.416;2024-03-08T08:50:03;5.60;61.50
81524;DHT22;70954;49.500;10.416;2024-03-08T08:52:29;5.60;61.40
81524;DHT22;70954;49.500;10.416;2024-03-08T08:54:54;5.70;61.40
81524;DHT22;70954;49.500;10.416;2024-03-08T08:57:20;5.80;61.40
81524;DHT22;70954;49.500;10.416;2024-03-08T08:59:45;5.90;61.40
81524;DHT22;70954;49.500;10.416;2024-03-08T09:02:11;5.90;61.10
81524;DHT22;70954;49.500;10.416;2024-03-08T09:04:36;6.00;61.10
81524;DHT22;70954;49.500;10.416;2024-03-08T09:07:02;6.10;61.00
81524;DHT22;70954;49.500;10.416;2024-03-08T09:09:27;6.10;61.00
81524;DHT22;70954;49.500;10.416;2024-03-08T09:11:53;6.20;60.80
81524;DHT22;70954;49.500;10.416;2024-03-08T09:14:18;6.30;60.30
81524;DHT22;70954;49.500;10.416;2024-03-08T09:16:43;6.40;60.30
81524;DHT22;70954;49.500;10.416;2024-03-08T09:19:09;6.40;60.40
81524;DHT22;70954;49.500;10.416;2024-03-08T09:21:34;6.50;60.30
81524;DHT22;70954;49.500;10.416;2024-03-08T09:24:00;6.50;60.40
81524;DHT22;70954;49.500;10.416;2024-03-08T09:26:26;6.60;60.20
81524;DHT22;70954;49.500;10.416;2024-03-08T09:28:51;6.70;60.20
81524;DHT22;70954;49.500;10.416;2024-03-08T09:31:17;6.80;60.10
81524;DHT22;70954;49.500;10.416;2024-03-08T09:33:42;6.90;59.80
81524;DHT22;70954;49.500;10.416;2024-03-08T09:36:08;6.90;59.60
81524;DHT22;70954;49.500;10.416;2024-03-08T09:38:33;7.00;59.10
81524;DHT22;70954;49.500;10.416;2024-03-08T09:40:59;7.00;58.90
81524;DHT22;70954;49.500;10.416;2024-03-08T09:43:25;7.00;59.10
81524;DHT22;70954;49.500;10.416;2024-03-08T09:45:51;7.20;58.70
81524;DHT22;70954;49.500;10.416;2024-03-08T09:48:17;7.20;58.60
81524;DHT22;70954;49.500;10.416;2024-03-08T09:50:43;7.20;58.50
81524;DHT22;70954;49.500;10.416;2024-03-08T09:53:09;7.20;58.40
81524;DHT22;70954;49.500;10.416;2024-03-08T09:55:40;7.30;58.40
81524;DHT22;70954;49.500;10.416;2024-03-08T09:58:06;7.40;58.30
81524;DHT22;70954;49.500;10.416;2024-03-08T10:00:31;7.40;58.50
81524;DHT22;70954;49.500;10.416;2024-03-08T10:03:01;7.40;58.40
81524;DHT22;70954;49.500;10.416;2024-03-08T10:05:26;7.50;58.30
81524;DHT22;70954;49.500;10.416;2024-03-08T10:07:52;7.50;58.30
81524;DHT22;70954;49.500;10.416;2024-03-08T10:10:17;7.50;58.40
81524;DHT22;70954;49.500;10.416;2024-03-08T10:12:43;7.60;58.40
81524;DHT22;70954;49.500;10.416;2024-03-08T10:15:09;7.70;58.40
81524;DHT22;70954;49.500;10.416;2024-03-08T10:17:35;7.80;58.30
81524;DHT22;70954;49.500;10.416;2024-03-08T10:20:00;7.80;57.90
81524;DHT22;70954;49.500;10.416;2024-03-08T10:22:26;7.90;57.70
81524;DHT22;70954;49.500;10.416;2024-03-08T10:24:51;8.00;57.90
81524;DHT22;70954;49.500;10.416;2024-03-08T10:27:18;8.00;57.90
81524;DHT22;70954;49.500;10.416;2024-03-08T10:29:47;8.10;57.50
81524;DHT22;70954;49.500;10.416;2024-03-08T10:32:12;8.20;57.40
81524;DHT22;70954;49.500;10.416;2024-03-08T10:34:38;8.30;57.40
81524;DHT22;70954;49.500;10.416;2024-03-08T10:37:04;8.30;57.10
81524;DHT22;70954;49.500;10.416;2024-03-08T10:39:35;8.40;57.10
81524;DHT22;70954;49.500;10.416;2024-03-08T10:42:03;8.50;56.90
81524;DHT22;70954;49.500;10.416;2024-03-08T10:49:31;8.70;56.50
81524;DHT22;70954;49.500;10.416;2024-03-08T10:51:57;8.80;56.50
81524;DHT22;70954;49.500;10.416;2024-03-08T10:54:25;8.90;56.40
81524;DHT22;70954;49.500;10.416;2024-03-08T10:56:51;8.90;56.10
81524;DHT22;70954;49.500;10.416;2024-03-08T10:59:18;9.00;55.40
81524;DHT22;70954;49.500;10.416;2024-03-08T11:01:44;9.00;55.50
81524;DHT22;70954;49.500;10.416;2024-03-08T11:04:10;9.00;55.20
81524;DHT22;70954;49.500;10.416;2024-03-08T11:09:30;9.20;55.20
81524;DHT22;70954;49.500;10.416;2024-03-08T11:12:18;9.20;54.80
81524;DHT22;70954;49.500;10.416;2024-03-08T11:14:44;9.30;54.40
81524;DHT22;70954;49.500;10.416;2024-03-08T11:17:10;9.30;54.00
81524;DHT22;70954;49.500;10.416;2024-03-08T11:19:35;9.40;54.60
81524;DHT22;70954;49.500;10.416;2024-03-08T11:22:02;9.40;54.50
81524;DHT22;70954;49.500;10.416;2024-03-08T11:24:36;9.50;54.60
81524;DHT22;70954;49.500;10.416;2024-03-08T11:27:03;9.50;54.60
81524;DHT22;70954;49.500;10.416;2024-03-08T11:32:16;9.60;54.30
81524;DHT22;70954;49.500;10.416;2024-03-08T11:34:47;9.70;53.30
81524;DHT22;70954;49.500;10.416;2024-03-08T11:37:14;9.70;53.50
81524;DHT22;70954;49.500;10.416;2024-03-08T11:39:52;9.80;53.00
81524;DHT22;70954;49.500;10.416;2024-03-08T11:42:19;9.80;53.40
81524;DHT22;70954;49.500;10.416;2024-03-08T11:44:45;9.90;53.10
81524;DHT22;70954;49.500;10.416;2024-03-08T11:47:11;10.00;53.40
81524;DHT22;70954;49.500;10.416;2024-03-08T11:49:38;10.00;52.90
81524;DHT22;70954;49.500;10.416;2024-03-08T11:52:03;10.00;53.30
81524;DHT22;70954;49.500;10.416;2024-03-08T11:54:29;10.10;52.90
81524;DHT22;70954;49.500;10.416;2024-03-08T11:56:56;10.10;52.10
81524;DHT22;70954;49.500;10.416;2024-03-08T11:59:21;10.20;52.20
81524;DHT22;70954;49.500;10.416;2024-03-08T12:02:04;10.20;52.20
81524;DHT22;70954;49.500;10.416;2024-03-08T12:04:30;10.30;52.00
81524;DHT22;70954;49.500;10.416;2024-03-08T12:06:57;10.30;52.30
81524;DHT22;70954;49.500;10.416;2024-03-08T12:09:24;10.40;52.30
81524;DHT22;70954;49.500;10.416;2024-03-08T12:11:49;10.40;52.30
81524;DHT22;70954;49.500;10.416;2024-03-08T12:14:15;10.50;51.50
81524;DHT22;70954;49.500;10.416;2024-03-08T12:16:42;10.50;51.00
81524;DHT22;70954;49.500;10.416;2024-03-08T12:19:07;10.60;51.00
81524;DHT22;70954;49.500;10.416;2024-03-08T12:21:33;10.60;51.30
81524;DHT22;70954;49.500;10.416;2024-03-08T12:24:03;10.70;51.10
81524;DHT22;70954;49.500;10.416;2024-03-08T12:26:29;10.70;51.20
81524;DHT22;70954;49.500;10.416;2024-03-08T12:29:21;10.70;51.40
81524;DHT22;70954;49.500;10.416;2024-03-08T12:31:48;10.80;50.70
81524;DHT22;70954;49.500;10.416;2024-03-08T12:34:14;10.80;50.70
81524;DHT22;70954;49.500;10.416;2024-03-08T12:36:53;10.90;50.80
81524;DHT22;70954;49.500;10.416;2024-03-08T12:39:19;10.90;50.70
81524;DHT22;70954;49.500;10.416;2024-03-08T12:41:45;11.00;50.90
81524;DHT22;70954;49.500;10.416;2024-03-08T12:44:10;11.00;50.50
81524;DHT22;70954;49.500;10.416;2024-03-08T12:46:35;11.10;50.10
81524;DHT22;70954;49.500;10.416;2024-03-08T12:49:01;11.10;50.40
81524;DHT22;70954;49.500;10.416;2024-03-08T12:51:26;11.10;50.50
81524;DHT22;70954;49.500;10.416;2024-03-08T12:53:52;11.20;50.50
81524;DHT22;70954;49.500;10.416;2024-03-08T12:56:29;11.30;50.00
81524;DHT22;70954;49.500;10.416;2024-03-08T12:58:54;11.30;49.60
81524;DHT22;70954;49.500;10.416;2024-03-08T13:01:20;11.40;50.10
81524;DHT22;70954;49.500;10.416;2024-03-08T13:03:45;11.40;49.90
81524;DHT22;70954;49.500;10.416;2024-03-08T13:06:11;11.50;49.90
81524;DHT22;70954;49.500;10.416;2024-03-08T13:08:37;11.50;49.90
81524;DHT22;70954;49.500;10.416;2024-03-08T13:11:02;11.50;49.90
81524;DHT22;70954;49.500;10.416;2024-03-08T13:13:28;11.60;49.60
81524;DHT22;70954;49.500;10.416;2024-03-08T13:15:53;11.70;49.40
81524;DHT22;70954;49.500;10.416;2024-03-08T13:18:19;11.70;48.60
81524;DHT22;70954;49.500;10.416;2024-03-08T13:20:44;11.70;48.70
81524;DHT22;70954;49.500;10.416;2024-03-08T13:23:09;11.70;48.90
81524;DHT22;70954;49.500;10.416;2024-03-08T13:25:35;11.80;48.80
81524;DHT22;70954;49.500;10.416;2024-03-08T13:28:00;11.90;48.50
81524;DHT22;70954;49.500;10.416;2024-03-08T13:30:26;11.90;48.10
81524;DHT22;70954;49.500;10.416;2024-03-08T13:32:52;11.90;47.60
81524;DHT22;70954;49.500;10.416;2024-03-08T13:35:18;12.00;47.30
81524;DHT22;70954;49.500;10.416;2024-03-08T13:37:43;12.00;46.50
81524;DHT22;70954;49.500;10.416;2024-03-08T13:40:10;12.00;46.10
81524;DHT22;70954;49.500;10.416;2024-03-08T13:42:35;12.00;47.10
81524;DHT22;70954;49.500;10.416;2024-03-08T13:45:00;12.00;46.90
81524;DHT22;70954;49.500;10.416;2024-03-08T13:47:26;12.10;46.20
81524;DHT22;70954;49.500;10.416;2024-03-08T13:49:51;12.10;46.60
81524;DHT22;70954;49.500;10.416;2024-03-08T13:52:17;12.10;46.50
81524;DHT22;70954;49.500;10.416;2024-03-08T13:54:42;12.10;46.20
81524;DHT22;70954;49.500;10.416;2024-03-08T13:57:08;12.10;46.20
81524;DHT22;70954;49.500;10.416;2024-03-08T13:59:34;12.20;46.50
81524;DHT22;70954;49.500;10.416;2024-03-08T14:02:00;12.20;46.10
81524;DHT22;70954;49.500;10.416;2024-03-08T14:04:25;12.20;46.10
81524;DHT22;70954;49.500;10.416;2024-03-08T14:06:50;12.30;46.30
81524;DHT22;70954;49.500;10.416;2024-03-08T14:09:16;12.30;46.10
81524;DHT22;70954;49.500;10.416;2024-03-08T14:11:41;12.30;45.90
81524;DHT22;70954;49.500;10.416;2024-03-08T14:14:07;12.30;45.90
81524;DHT22;70954;49.500;10.416;2024-03-08T14:16:32;12.30;45.70
81524;DHT22;70954;49.500;10.416;2024-03-08T14:18:58;12.40;45.50
81524;DHT22;70954;49.500;10.416;2024-03-08T14:21:23;12.40;45.00
81524;DHT22;70954;49.500;10.416;2024-03-08T14:23:48;12.40;45.10
81524;DHT22;70954;49.500;10.416;2024-03-08T14:26:14;12.40;45.40
81524;DHT22;70954;49.500;10.416;2024-03-08T14:28:39;12.50;45.30
81524;DHT22;70954;49.500;10.416;2024-03-08T14:31:05;12.50;45.40
81524;DHT22;70954;49.500;10.416;2024-03-08T14:33:30;12.50;45.00
81524;DHT22;70954;49.500;10.416;2024-03-08T14:35:55;12.50;44.60
81524;DHT22;70954;49.500;10.416;2024-03-08T14:38:21;12.50;45.00
81524;DHT22;70954;49.500;10.416;2024-03-08T14:40:46;12.50;45.00
81524;DHT22;70954;49.500;10.416;2024-03-08T14:43:12;12.50;44.80
81524;DHT22;70954;49.500;10.416;2024-03-08T14:45:37;12.50;44.50
81524;DHT22;70954;49.500;10.416;2024-03-08T14:48:03;12.50;44.70
81524;DHT22;70954;49.500;10.416;2024-03-08T14:50:29;12.50;44.20
81524;DHT22;70954;49.500;10.416;2024-03-08T14:52:54;12.50;44.30
81524;DHT22;70954;49.500;10.416;2024-03-08T14:55:21;12.50;44.10
81524;DHT22;70954;49.500;10.416;2024-03-08T14:57:46;12.50;44.10
81524;DHT22;70954;49.500;10.416;2024-03-08T15:00:13;12.50;43.80
81524;DHT22;70954;49.500;10.416;2024-03-08T15:02:39;12.60;43.80
81524;DHT22;70954;49.500;10.416;2024-03-08T15:05:05;12.60;43.70
81524;DHT22;70954;49.500;10.416;2024-03-08T15:07:30;12.60;43.40
81524;DHT22;70954;49.500;10.416;2024-03-08T15:09:55;12.60;43.70
81524;DHT22;70954;49.500;10.416;2024-03-08T15:12:21;12.60;43.60
81524;DHT22;70954;49.500;10.416;2024-03-08T15:14:46;12.60;43.90
81524;DHT22;70954;49.500;10.416;2024-03-08T15:17:12;12.60;43.90
81524;DHT22;70954;49.500;10.416;2024-03-08T15:19:37;12.60;43.20
81524;DHT22;70954;49.500;10.416;2024-03-08T15:22:03;12.60;43.40
81524;DHT22;70954;49.500;10.416;2024-03-08T15:24:28;12.60;43.70
81524;DHT22;70954;49.500;10.416;2024-03-08T15:26:54;12.60;43.60
81524;DHT22;70954;49.500;10.416;2024-03-08T15:29:19;12.60;43.70